Aviation Digital Data Service (ADDS)

Output produced by METARs form (2056 UTC 29 May 2017)
found at http://www.aviationweather.gov/adds/metars/
 
DAUA 292000Z 20004KT CAVOK 35/// Q1005
TAF DAUA 291700Z 2918/3018 26013KT CAVOK 
     TEMPO 2923/3003 VRB02KT
       
DABB 292030Z 20004KT 8000 FEW026 SCT200 20/15 Q1013
TAF DABB 291700Z 2918/3018 04014KT 9999 FEW026 SCT200 
     PROB40 
     TEMPO 2918/2921 04015G25KT 
     PROB30 
     TEMPO 2918/2920 FEW023TCU 
     BECMG 2921/2924 VRB02KT
       
DABT 292000Z 15004KT CAVOK 22/15 Q1016
TAF DABT 291700Z 2918/3018 02012KT 9999 FEW026TCU SCT200 
     TEMPO 2918/2920 5000 -TSRA SCT023CB 
     BECMG 2921/2924 VRB02KT
       
DAOR 292000Z 01016KT 9000 FEW033 33/03 Q1010
TAF DAOR 292000Z 2921/3006 03015KT 8000 FEW033 
     PROB40 2921/3003 05015G30KT 2000 DRSA
       
DAAE 292000Z 13005KT 8000 FEW016 BKN233 21/18 Q1014
TAF DAAE 291700Z 2918/3018 08014KT 8000 FEW016 SCT200 
     PROB30 
     TEMPO 2918/2922 07015G25KT 
     PROB40 
     TEMPO 2918/2920 FEW020TCU 
     BECMG 2921/2924 VRB02KT
       
DAUB 292000Z 13004KT 9999 FEW040 SCT200 30/10 Q1013
TAF DAUB 291700Z 2918/3018 12012KT 9999 FEW040 SCT200 
     TEMPO 2918/2923 FEW033TCU
       
DATM 291800Z 30018KT 9999 FEW046 SCT100 41/// Q1009
TAF DATM 291400Z 2915/2924 34015KT 6000 NSC 
     PROB30 
     TEMPO 2915/2918 34015G25KT 3000 DRSA
       
DAAD 291800Z 06004KT 8000 SCT030 33/08 Q1011
TAF DAAD 291700Z 2918/3003 06006KT 8000 SCT030 
     PROB30 
     TEMPO 2918/2922 5000 -TSRA FEW026CB
       
DAOI 292000Z 26005KT 9999 SCT026 22/14 Q1015
TAF DAOI 291700Z 2918/3018 26010KT 9999 SCT026 SCT100 
     BECMG 2920/2923 VRB02KT 
     PROB30 
     TEMPO 2921/3006 18012KT -TSRA SCT026 FEW030CB BKN100 
     BECMG 3009/3012 34012KT
       
DABC 292030Z 07004KT 9999 FEW030 SCT200 20/12 Q1016
TAF DABC 291700Z 2918/3018 02012KT 9999 FEW030TCU SCT200 
     TEMPO 
     PROB40 
     TEMPO 2914/2920 5000 -TSRA FEW023CB 
     BECMG 2921/2924 VRB02KT
       
DAAG 292030Z VRB01KT 9999 FEW020 SCT040 21/16 Q1015
TAF DAAG 291700Z 2918/3018 27006KT 9999 SCT020 FEW030CB BKN046 
     TEMPO 2918/2924 5000 -RA FEW026CB 
     PROB40 
     TEMPO 2921/3004 34015G25KT 3000 TSRA FEW023CB BKN015
       
DAAJ 292000Z 15004KT 9999 FEW046 34/09 Q1012
TAF DAAJ 291700Z 2918/3018 32005KT 8000 FEW046 
     PROB30 
     TEMPO 2918/2922 4000 HZ FEW040CB 
     BECMG 2920/2923 16012KT
       
DAUE 292000Z 06010KT CAVOK 34/09 Q1009
DAUO 292000Z 07017KT CAVOK 27/12 Q1012
TAF DAUO 292000Z 2921/3006 09014KT 8000 NSC 
     PROB30 
     TEMPO 2921/2924 09015G25KT 3000 DRSA
       
DAUG 292000Z 07012KT CAVOK 29/06 Q1013
TAF DAUG 291700Z 2918/3018 06015KT 8000 NSC 
     PROB40 
     TEMPO 2918/2924 06015G25KT 3000 DRSA 
     PROB30 
     TEMPO 3011/3015 08015G30KT 4000 -TSRA FEW040CB
       
DAUH 292030Z 03005KT 8000 NSC 31/08 Q1010
TAF DAUH 291700Z 2918/3018 06015KT 8000 NSC 
     PROB40 
     TEMPO 2918/2924 06015G25KT 2000 DRSA
       
DAAP 292000Z 09014KT 9999 FEW046 SCT233 35/02 Q1007
TAF DAAP 292000Z 2921/3006 09014KT 9999 FEW040 
     PROB30 
     TEMPO 2921/2924 3000 HZ FEW040TCU
       
DAUZ 292000Z 06019KT 4000 DRSA NSC 34/06 Q1008
TAF AMD DAUZ 291925Z 2918/3018 07015KT 6000 FEW040 SCT180 
     TEMPO 
     TEMPO 2919/2924 02020KT 3000 DRSA 2920/3003 06020G30KT 15000 BLSA FEW040CB
       
TAF DAUI 291700Z 2918/3018 24012KT CAVOK 
     BECMG 2922/3001 VRB02KT 
     BECMG 3006/3010 15014KT
       
DAAV 292000Z 00000KT 8000 FEW020 SCT090 23/18 Q1014
TAF DAAV 291700Z 2918/3018 06014KT 8000 FEW020 SCT200 
     PROB30 
     TEMPO 2918/2922 04015G25KT 
     PROB40 
     TEMPO 2918/2921 FEW020TCU 
     BECMG 2921/2924 VRB02KT
       
DAUL 292000Z 06006KT 9999 TS FEW026CB SCT030 BKN200 27/06 Q1015
TAF DAUL 292000Z 2921/3006 08008KT 9999 SCT030 
     TEMPO 2921/2924 -TSRA FEW026CB
       
DAOV 292000Z 03007KT 9999 SCT030 SCT100 19/13 Q1017
TAF DAOV 291700Z 2918/3003 36014KT 9999 BKN026 
     PROB30 
     TEMPO 2918/2924 -TSRA FEW30CB 
     BECMG 2921/2924 VRB02KT
       
DAAY 292000Z 01024KT 6000 SCT026TCU 21/13 Q1020
TAF DAAY 291700Z 2918/3003 36018KT 6000 SCT026TCU 
     PROB30 
     TEMPO 2918/2922 -TSRA FEW026CB
       
DAOO 292030Z 25008KT 9999 SCT026 SCT100 21/14 Q1015
TAF DAOO 291700Z 2918/3018 26010KT 9999 FEW026 SCT100 
     BECMG 2920/2923 VRB02KT 
     TEMPO 3000/3006 19010KT 
     BECMG 3009/3012 02012KT
       
DAOL 292000Z 26012KT 9999 SCT026 22/15 Q1016
DAUU 292000Z 04010KT 8000 NSC 31/07 Q1010
TAF DAUU 292000Z 2921/3006 06015KT 8000 NSC 
     PROB30 
     TEMPO 2921/2924 06015G25KT 4000 DRSA
       
DAAS 292000Z 02010KT 9999 FEW030TCU SCT233 23/06 Q1017
TAF DAAS 291700Z 2918/3018 02012KT 9999 FEW026TCU SCT200 
     TEMPO 2918/2920 5000 -TSRA SCT023CB 
     BECMG 2921/2924 VRB02KT
       
DAAT 292030Z 26018G31KT 5000 DRSA SCT046 31/M04 Q1018
TAF DAAT 291700Z 2918/3018 33014KT 8000 FEW046 
     TEMPO 2918/2920 28016G26KT 
     PROB40 
     TEMPO 2920/3002 3000 HZ 
     BECMG 3002/3006 06012KT 
     BECMG 3010/3014 24015KT
       
DABS 292000Z 12012KT CAVOK 21/06 Q1017
TAF DABS 291700Z 2918/3018 34012KT 9999 FEW040 SCT200 
     TEMPO 2918/2921 SCT026TCU 
     PROB40 
     TEMPO 2918/2920 5000 -TSRA FEW023CB 
     BECMG 2921/2924 VRB02KT
       
DAOB 292000Z 29010KT 9999 SCT023 FEW026CB 17/12 Q1019
TAF DAOB 291700Z 2918/3018 32014KT 9999 SCT023 SCT080 
     TEMPO 2918/2924 5000 -RA FEW023CB 
     PROB40 
     TEMPO 2921/3003 32015G25KT 3000 TSRA FEW023CB 
     BECMG 3004/3008 VRB02KT
       
DAFH 291800Z 09008KT 9999 SCT030 29/07 Q1014
TAF DAFH 291700Z 2918/3003 09012KT 9999 SCT033 
     PROB30 
     TEMPO 2918/2921 09015G25KT 4000 DRSA FEW030CB
       
DAUT 291900Z 23007KT CAVOK 39/// Q1005
TAF DAUT 292000Z 2921/3006 24012KT CAVOK 
     BECMG 2922/3001 VRB02KT
       
DAOF 292000Z 28024KT 4000 DRSA NSC 27/05 Q1009
TAF DAOF 292000Z 2921/3006 30020KT 5000 NSC 
     TEMPO 2921/2924 28025G35KT 3000 DRSA
       
DAON 292030Z 00000KT 9999 FEW026 SCT233 19/13 Q1016
TAF DAON 291700Z 2918/3018 34010KT 9999 FEW026 SCT100 
     BECMG 2920/2923 VRB02KT 
     BECMG 3009/3012 36012KT
       
DAUK 292000Z 03003KT CAVOK 28/17 Q1012
TAF DAUK 292000Z 2921/3006 08014KT 8000 NSC 
     PROB30 
     TEMPO 2921/2924 08015G25KT 3000 DRSA